createdAt,value
2022-08-09T00:01:59.678Z,57.5
2022-08-09T00:08:10.598Z,58.1
2022-08-09T00:14:21.931Z,58.6
2022-08-09T00:20:31.678Z,59.4
2022-08-09T00:26:42.356Z,61.3
2022-08-09T00:31:58.262Z,63.1
2022-08-09T00:37:49.556Z,63.6
2022-08-09T00:44:26.795Z,63.4
2022-08-09T00:50:27.344Z,64.3
2022-08-09T00:56:37.910Z,65.4
2022-08-09T01:02:48.595Z,65.4
2022-08-09T01:11:27.522Z,65.4
2022-08-09T01:20:14.636Z,65
2022-08-09T01:32:29.783Z,66.6
2022-08-09T01:40:08.971Z,65.9
2022-08-09T01:51:22.753Z,66
2022-08-09T01:59:59.850Z,67
2022-08-09T02:11:02.529Z,69
2022-08-09T02:20:55.412Z,69.9
2022-08-09T02:29:34.329Z,74.8
2022-08-09T02:39:33.481Z,75.1
2022-08-09T02:49:20.449Z,74.6
2022-08-09T02:59:25.888Z,74.1
2022-08-09T03:10:20.719Z,73.5
2022-08-09T03:20:13.804Z,75.4
2022-08-09T03:29:57.163Z,77.3
2022-08-09T03:40:49.071Z,79.3
2022-08-09T03:49:29.968Z,78.4
2022-08-09T03:59:27.654Z,78.7
2022-08-09T04:10:28.851Z,80.8
2022-08-09T04:19:11.192Z,80.7
2022-08-09T04:24:11.945Z,82.3
2022-08-09T04:29:16.686Z,82.2
2022-08-09T04:34:30.796Z,83.8
2022-08-09T04:41:46.190Z,84.8
2022-08-09T04:49:10.985Z,83.9
2022-08-09T04:56:35.800Z,84.6
2022-08-09T05:04:00.634Z,83.5
2022-08-09T05:11:35.903Z,83.7
2022-08-09T05:18:59.964Z,84.7
2022-08-09T05:26:36.776Z,83.2
2022-08-09T05:33:47.991Z,82.8
2022-08-09T05:38:52.717Z,83.2
2022-08-09T05:44:05.652Z,80.5
2022-08-09T05:50:30.293Z,85.3
2022-08-09T05:56:18.806Z,78.3
2022-08-09T06:02:29.566Z,70.2
2022-08-09T06:08:40.109Z,64.9
2022-08-09T06:14:50.778Z,58.7
2022-08-09T06:21:01.445Z,53.1
2022-08-09T06:27:12.106Z,49.2
2022-08-09T06:33:39.648Z,46
2022-08-09T06:39:58.050Z,43.7
2022-08-09T06:46:07.540Z,43.7
2022-08-09T06:53:00.729Z,40.8
2022-08-09T07:00:55.693Z,38.7
2022-08-09T07:06:44.389Z,38.2
2022-08-09T07:14:09.182Z,37.2
2022-08-09T07:20:19.948Z,35.1
2022-08-09T07:25:24.593Z,36.8
2022-08-09T07:31:38.518Z,35
2022-08-09T07:36:39.988Z,34.2
2022-08-09T07:42:50.643Z,33
2022-08-09T07:49:01.317Z,34.3
2022-08-09T07:55:03.943Z,34.3
2022-08-09T08:01:14.534Z,31.3
2022-08-09T08:08:44.513Z,31.3
2022-08-09T08:13:56.328Z,31.3
2022-08-09T08:20:02.855Z,31.1
2022-08-09T08:26:13.501Z,28.4
2022-08-09T08:32:29.389Z,28.4
2022-08-09T08:38:34.862Z,28.4
2022-08-09T08:44:46.271Z,29
2022-08-09T08:50:56.194Z,29.1
2022-08-09T08:56:58.676Z,30.1
2022-08-09T09:03:16.213Z,28.3
2022-08-09T09:09:21.113Z,27.8
2022-08-09T09:15:30.692Z,27.5
2022-08-09T09:21:43.177Z,26.7
2022-08-09T09:28:06.739Z,26.8
2022-08-09T09:34:02.687Z,27.2
2022-08-09T09:40:13.468Z,26.4
2022-08-09T09:46:42.089Z,26.2
2022-08-09T09:52:36.644Z,26.2
2022-08-09T09:58:37.376Z,25.6
2022-08-09T10:06:05.028Z,24.9
2022-08-09T10:12:27.636Z,25.1
2022-08-09T10:18:23.303Z,25.5
2022-08-09T10:24:35.878Z,24.8
2022-08-09T10:36:55.292Z,23.9
2022-08-09T10:43:22.362Z,24.1
2022-08-09T10:49:50.093Z,25.5
2022-08-09T10:55:35.626Z,24.3
2022-08-09T11:03:16.371Z,25.4
2022-08-09T11:07:58.995Z,25.5
2022-08-09T11:14:07.508Z,25.2
2022-08-09T11:20:22.337Z,24.7
2022-08-09T11:26:28.833Z,24.9
2022-08-09T11:32:39.526Z,24.3
2022-08-09T11:38:50.170Z,25.2
2022-08-09T11:45:09.029Z,26.3
2022-08-09T11:53:00.758Z,25.6
2022-08-09T11:57:47.006Z,25.4
2022-08-09T12:03:57.103Z,27.8
2022-08-09T12:09:50.348Z,29.9
2022-08-09T12:15:54.175Z,27.6
2022-08-09T12:22:04.881Z,29.4
2022-08-09T12:28:59.389Z,29.3
2022-08-09T12:34:26.441Z,28.8
2022-08-09T12:40:36.870Z,29.8
2022-08-09T12:46:48.598Z,28.5
2022-08-09T12:54:04.138Z,30.5
2022-08-09T13:00:14.834Z,29
2022-08-09T13:06:25.462Z,31.5
2022-08-09T13:12:40.112Z,31.6
2022-08-09T13:18:04.683Z,33.2
2022-08-09T13:25:14.952Z,33.2
2022-08-09T13:32:15.711Z,32.6
2022-08-09T13:37:52.377Z,32.9
2022-08-09T13:43:45.898Z,32.9
2022-08-09T13:51:10.657Z,32.7
2022-08-09T13:57:14.405Z,32.6
2022-08-09T14:04:02.811Z,33.8
2022-08-09T14:09:35.724Z,33
2022-08-09T14:16:09.284Z,33
2022-08-09T14:21:55.809Z,32.3
2022-08-09T14:28:06.478Z,33.9
2022-08-09T14:34:17.650Z,33.7
2022-08-09T14:41:00.748Z,33
2022-08-09T14:46:54.752Z,33.7
2022-08-09T14:52:50.751Z,33.3
2022-08-09T15:00:05.757Z,33.1
2022-08-09T15:06:16.442Z,34.2
2022-08-09T15:12:27.625Z,33.3
2022-08-09T15:18:37.773Z,32.5
2022-08-09T15:24:48.443Z,33.6
2022-08-09T15:31:13.174Z,32.9
2022-08-09T15:37:09.783Z,34.2
2022-08-09T15:43:37.858Z,33.9
2022-08-09T15:50:04.512Z,33.5
2022-08-09T16:02:08.848Z,33.6
2022-08-09T16:08:29.760Z,34.9
2022-08-09T16:14:31.761Z,33.6
2022-08-09T16:20:41.785Z,33.6
2022-08-09T16:26:51.488Z,34.4
2022-08-09T16:33:02.168Z,36.1
2022-08-09T16:39:12.985Z,34.2
2022-08-09T16:45:23.523Z,35.4
2022-08-09T16:51:34.801Z,34.9
2022-08-09T16:58:50.879Z,35
2022-08-09T17:05:01.455Z,35.4
2022-08-09T17:11:12.116Z,35.8
2022-08-09T17:17:26.150Z,36.1
2022-08-09T17:24:20.035Z,35.9
2022-08-09T17:29:45.602Z,35.9
2022-08-09T17:35:54.828Z,35.8
2022-08-09T17:42:05.477Z,35.9
2022-08-09T17:48:16.159Z,36.4
2022-08-09T17:54:29.756Z,35.8
2022-08-09T18:00:35.238Z,36.7
2022-08-09T18:06:39.938Z,37.3
2022-08-09T18:13:43.241Z,37.6
2022-08-09T18:18:07.883Z,37.9
2022-08-09T18:24:15.272Z,38.7
2022-08-09T18:30:41.058Z,38.1
2022-08-09T18:36:36.427Z,38.6
2022-08-09T18:42:46.179Z,38.7
2022-08-09T18:48:58.337Z,38.4
2022-08-09T18:55:13.736Z,39.1
2022-08-09T19:01:09.989Z,39.9
2022-08-09T19:07:20.664Z,40.1
2022-08-09T19:13:49.787Z,40.1
2022-08-09T19:19:42.198Z,40.2
2022-08-09T19:27:06.839Z,40.2
2022-08-09T19:33:19.364Z,41.3
2022-08-09T19:39:43.144Z,41.7
2022-08-09T19:45:40.228Z,41.6
2022-08-09T19:51:55.349Z,42.3
2022-08-09T19:58:00.146Z,42.8
2022-08-09T20:04:27.839Z,43.3
2022-08-09T20:10:22.321Z,43.5
2022-08-09T20:16:50.330Z,43.4
2022-08-09T20:22:46.214Z,43.4
2022-08-09T20:28:53.495Z,43.9
2022-08-09T20:35:04.175Z,43.8
2022-08-09T20:41:14.882Z,44.6
2022-08-09T20:46:41.913Z,44.6
2022-08-09T20:53:52.582Z,44.7
2022-08-09T21:01:35.377Z,45.4
2022-08-09T21:08:50.350Z,45.4
2022-08-09T21:16:19.580Z,46.1
2022-08-09T21:23:51.343Z,46.4
2022-08-09T21:28:55.477Z,46.9
2022-08-09T21:36:10.233Z,47.9
2022-08-09T21:43:57.003Z,47.6
2022-08-09T21:49:44.970Z,48.5
2022-08-09T21:57:36.979Z,48.9
2022-08-09T22:04:56.557Z,49.3
2022-08-09T22:12:09.269Z,49.5
2022-08-09T22:17:12.243Z,49.6
2022-08-09T22:23:35.595Z,51
2022-08-09T22:29:47.649Z,50.5
2022-08-09T22:36:01.342Z,50.9
2022-08-09T22:42:03.116Z,51.4
2022-08-09T22:48:29.656Z,51.4
2022-08-09T22:54:16.278Z,52.5
2022-08-09T23:00:29.617Z,52.2
2022-08-09T23:08:27.298Z,52.4
2022-08-09T23:14:43.376Z,53.7
2022-08-09T23:22:08.186Z,53.6
2022-08-09T23:29:32.972Z,53.5
2022-08-09T23:34:37.751Z,53.6
2022-08-09T23:40:48.362Z,53.4
2022-08-09T23:46:52.909Z,55.5
2022-08-09T23:53:01.522Z,54.9
2022-08-09T23:59:12.184Z,54.3
